Time;durP1;ratioP1;P1;durP2;ratioP2;P2;SDS_P1;SDS_P2;PMS_P1;PMS_P2;Temp;Humidity;BMP_temperature;BMP_pressure;BME280_temperature;BME280_humidity;BME280_pressure;Samples;Min_cycle;Max_cycle;Signal;HPM_P1;HPM_P2
2022/04/10 00:00:21;;;;;;;42.45;30.25;;;;;;;1.34;100.00;98476.84;2065830;28;20205;-68
2022/04/10 00:01:21;;;;;;;44.80;31.33;;;;;;;1.31;100.00;98482.63;2065004;28;20201;-69
2022/04/10 00:02:23;;;;;;;42.90;31.33;;;;;;;1.30;100.00;98489.72;2056879;28;20676;-68
2022/04/10 00:03:24;;;;;;;44.88;32.38;;;;;;;1.26;100.00;98491.22;2065287;28;20566;-68
2022/04/10 00:04:25;;;;;;;44.77;31.43;;;;;;;1.23;100.00;98490.94;2065668;28;20275;-68
2022/04/10 00:05:27;;;;;;;42.42;30.30;;;;;;;1.22;100.00;98484.91;2065676;28;20201;-68
2022/04/10 00:06:30;;;;;;;47.70;30.95;;;;;;;1.20;100.00;98486.97;2066676;28;20248;-69
2022/04/10 00:07:31;;;;;;;40.67;30.13;;;;;;;1.18;100.00;98488.25;2067190;28;20204;-69
2022/04/10 00:08:33;;;;;;;41.28;30.33;;;;;;;1.22;100.00;98497.25;2067377;28;20219;-69
2022/04/10 00:09:34;;;;;;;46.33;30.48;;;;;;;1.23;100.00;98501.47;2067108;28;20193;-68
2022/04/10 00:10:35;;;;;;;46.67;31.67;;;;;;;1.24;100.00;98503.03;2067135;28;20217;-68
2022/04/10 00:11:36;;;;;;;46.40;30.33;;;;;;;1.21;100.00;98503.53;2067122;28;20193;-69
2022/04/10 00:12:39;;;;;;;41.30;29.87;;;;;;;1.21;100.00;98493.00;2067309;28;20730;-68
2022/04/10 00:13:40;;;;;;;50.60;31.48;;;;;;;1.18;100.00;98494.31;2067099;28;20188;-68
2022/04/10 00:14:45;;;;;;;44.67;31.73;;;;;;;1.17;100.00;98497.97;2065997;28;20292;-68
2022/04/10 00:15:45;;;;;;;44.90;31.50;;;;;;;1.13;100.00;98486.41;2058635;28;20637;-69
2022/04/10 00:16:47;;;;;;;42.40;30.23;;;;;;;1.12;100.00;98495.28;2058394;28;20554;-69
2022/04/10 00:17:48;;;;;;;43.60;31.52;;;;;;;1.12;100.00;98496.09;2066549;28;20223;-69
2022/04/10 00:18:51;;;;;;;45.10;32.27;;;;;;;1.11;100.00;98491.09;2067136;28;20193;-68
2022/04/10 00:19:53;;;;;;;44.65;33.10;;;;;;;1.12;100.00;98493.47;2066388;28;20205;-69
2022/04/10 00:20:56;;;;;;;43.55;31.52;;;;;;;1.18;100.00;98499.56;2065969;28;20562;-69
2022/04/10 00:21:57;;;;;;;44.25;31.52;;;;;;;1.18;100.00;98494.31;2074407;28;20220;-68
2022/04/10 00:22:59;;;;;;;43.87;31.37;;;;;;;1.17;100.00;98497.19;2066379;28;20778;-68
2022/04/10 00:24:00;;;;;;;45.20;31.30;;;;;;;1.17;100.00;98502.44;2059080;28;20205;-69
2022/04/10 00:25:02;;;;;;;43.57;30.33;;;;;;;1.17;100.00;98502.44;2058284;28;20229;-68
2022/04/10 00:26:04;;;;;;;43.30;31.77;;;;;;;1.16;100.00;98503.47;2066657;28;20232;-68
2022/04/10 00:27:10;;;;;;;39.50;29.52;;;;;;;1.15;100.00;98505.31;2066807;28;20224;-67
2022/04/10 00:28:10;;;;;;;47.75;31.30;;;;;;;1.17;100.00;98502.44;2067273;28;20220;-68
2022/04/10 00:29:12;;;;;;;48.77;32.20;;;;;;;1.15;100.00;98507.16;2074345;28;20702;-68
2022/04/10 00:30:16;;;;;;;44.90;31.98;;;;;;;1.11;100.00;98504.22;2074511;28;20200;-68
2022/04/10 00:31:18;;;;;;;48.78;32.22;;;;;;;1.07;100.00;98508.41;2066279;28;20197;-68
2022/04/10 00:32:19;;;;;;;41.72;30.58;;;;;;;1.07;100.00;98505.75;2058350;28;20206;-69
2022/04/10 00:33:22;;;;;;;44.57;31.97;;;;;;;1.03;100.00;98502.81;2058243;28;20292;-69
2022/04/10 00:34:23;;;;;;;44.40;31.45;;;;;;;1.01;100.00;98504.13;2066162;28;20675;-68
2022/04/10 00:35:25;;;;;;;40.70;31.67;;;;;;;1.02;100.00;98511.75;2066295;28;20197;-68
2022/04/10 00:36:25;;;;;;;41.10;32.50;;;;;;;1.00;100.00;98513.03;2065970;28;20636;-69
2022/04/10 00:37:28;;;;;;;42.97;31.38;;;;;;;0.99;100.00;98516.72;2074026;28;20591;-68
2022/04/10 00:38:29;;;;;;;42.15;30.17;;;;;;;1.00;100.00;98516.47;2066277;28;20209;-69
2022/04/10 00:39:35;;;;;;;45.58;31.83;;;;;;;0.99;100.00;98514.09;2066392;28;20276;-70
2022/04/10 00:40:38;;;;;;;42.95;30.52;;;;;;;0.98;100.00;98513.28;2067065;28;20178;-68
2022/04/10 00:41:38;;;;;;;43.97;30.52;;;;;;;0.97;100.00;98508.28;2066963;28;20189;-69
2022/04/10 00:42:43;;;;;;;44.40;30.03;;;;;;;0.97;100.00;98513.53;2066115;28;20225;-68
2022/04/10 00:44:01;;;;;;;42.55;31.00;;;;;;;0.95;100.00;98511.13;2066504;28;20193;-68
2022/04/10 00:45:04;;;;;;;41.00;31.40;;;;;;;0.94;100.00;98512.19;2066910;28;20176;-69
2022/04/10 00:46:06;;;;;;;44.33;30.40;;;;;;;0.94;100.00;98520.06;2066836;28;20193;-69
2022/04/10 00:47:11;;;;;;;48.65;32.50;;;;;;;0.91;100.00;98515.31;2066085;28;20197;-68
2022/04/10 00:48:13;;;;;;;38.83;30.33;;;;;;;0.89;100.00;98519.22;2066331;28;20767;-69
2022/04/10 00:49:14;;;;;;;42.97;30.88;;;;;;;0.85;100.00;98522.34;2067038;28;20196;-69
2022/04/10 00:50:17;;;;;;;42.30;30.83;;;;;;;0.86;100.00;98528.38;2074286;28;20283;-68
2022/04/10 00:52:39;;;;;;;39.65;29.90;;;;;;;0.84;100.00;98531.25;2066153;28;20563;-68
2022/04/10 00:53:39;;;;;;;42.40;29.70;;;;;;;0.83;100.00;98526.25;2066262;28;20200;-69
2022/04/10 00:54:42;;;;;;;40.22;30.60;;;;;;;0.86;100.00;98533.63;2074230;28;20660;-68
2022/04/10 00:55:45;;;;;;;44.30;31.20;;;;;;;0.83;100.00;98531.50;2066074;28;20574;-68
2022/04/10 00:56:46;;;;;;;41.55;31.05;;;;;;;0.79;100.00;98535.66;2058284;28;20205;-68
2022/04/10 00:57:48;;;;;;;43.83;31.33;;;;;;;0.78;100.00;98526.19;2066430;28;20189;-68
2022/04/10 00:58:50;;;;;;;47.92;31.63;;;;;;;0.76;100.00;98533.50;2066091;28;20205;-68
2022/04/10 00:59:52;;;;;;;38.95;29.88;;;;;;;0.74;100.00;98531.13;2058110;28;20201;-68
2022/04/10 01:00:52;;;;;;;49.65;30.95;;;;;;;0.70;100.00;98529.25;2058080;28;20657;-68
2022/04/10 01:01:56;;;;;;;40.53;30.97;;;;;;;0.68;100.00;98528.69;2058032;28;20612;-68
2022/04/10 01:02:57;;;;;;;45.33;30.88;;;;;;;0.68;100.00;98533.94;2058084;28;20228;-69
2022/04/10 01:03:59;;;;;;;44.55;31.98;;;;;;;0.68;100.00;98532.09;2066142;28;20193;-69
2022/04/10 01:05:00;;;;;;;49.07;32.30;;;;;;;0.65;100.00;98532.59;2066690;28;20272;-68
2022/04/10 01:06:04;;;;;;;45.28;32.00;;;;;;;0.64;100.00;98532.84;2065129;28;20213;-69
2022/04/10 01:07:06;;;;;;;40.92;31.77;;;;;;;0.66;100.00;98543.91;2058392;28;20182;-69
2022/04/10 01:08:09;;;;;;;49.72;32.78;;;;;;;0.60;100.00;98537.78;2058366;28;20684;-69
2022/04/10 01:09:12;;;;;;;48.07;31.87;;;;;;;0.58;100.00;98539.88;2066173;28;20630;-68
2022/04/10 01:10:13;;;;;;;48.25;32.85;;;;;;;0.57;100.00;98539.06;2066933;28;20189;-68
2022/04/10 01:11:15;;;;;;;47.37;33.23;;;;;;;0.54;100.00;98536.16;2066931;28;20272;-69
2022/04/10 01:12:16;;;;;;;53.17;35.25;;;;;;;0.54;100.00;98536.94;2074044;28;20291;-69
2022/04/10 01:13:25;;;;;;;44.95;32.63;;;;;;;0.51;100.00;98534.78;2065898;28;20236;-69
2022/04/10 01:14:29;;;;;;;45.83;33.05;;;;;;;0.48;100.00;98537.13;2066737;28;20205;-69
2022/04/10 01:15:31;;;;;;;46.60;32.60;;;;;;;0.50;100.00;98540.28;2065961;28;20348;-68
2022/04/10 01:16:32;;;;;;;46.80;32.83;;;;;;;0.48;100.00;98543.16;2058012;28;20678;-69
2022/04/10 01:17:36;;;;;;;42.63;32.42;;;;;;;0.47;100.00;98535.53;2065839;28;20708;-67
2022/04/10 01:18:37;;;;;;;44.38;32.15;;;;;;;0.46;100.00;98540.00;2065942;28;20201;-69
2022/04/10 01:19:43;;;;;;;44.65;32.97;;;;;;;0.46;100.00;98534.75;2057926;28;20237;-68
2022/04/10 01:20:48;;;;;;;41.50;31.60;;;;;;;0.44;100.00;98536.81;2058680;28;20263;-69
2022/04/10 01:21:51;;;;;;;47.90;32.95;;;;;;;0.40;100.00;98533.06;2057800;28;20704;-69
2022/04/10 01:22:55;;;;;;;45.17;32.85;;;;;;;0.38;100.00;98531.75;2058055;28;20280;-68
2022/04/10 01:23:56;;;;;;;45.35;33.13;;;;;;;0.38;100.00;98540.41;2058012;28;20198;-69
2022/04/10 01:24:59;;;;;;;53.22;33.58;;;;;;;0.35;100.00;98542.69;2057904;28;20216;-69
2022/04/10 01:26:08;;;;;;;42.85;31.27;;;;;;;0.36;100.00;98532.00;2066381;28;20197;-69
2022/04/10 01:27:11;;;;;;;45.88;32.42;;;;;;;0.38;100.00;98540.41;2065674;28;20700;-68
2022/04/10 01:28:15;;;;;;;46.47;32.85;;;;;;;0.39;100.00;98536.75;2066024;28;20193;-68
2022/04/10 01:29:17;;;;;;;43.95;31.92;;;;;;;0.40;100.00;98535.69;2065841;28;20287;-69
2022/04/10 01:30:19;;;;;;;42.92;31.85;;;;;;;0.40;100.00;98532.28;2065854;28;20201;-68
2022/04/10 01:31:22;;;;;;;43.55;31.27;;;;;;;0.39;100.00;98528.06;2065775;28;20243;-69
2022/04/10 01:32:23;;;;;;;42.63;31.83;;;;;;;0.40;100.00;98533.06;2058235;28;20711;-68
2022/04/10 01:33:26;;;;;;;42.30;31.80;;;;;;;0.43;100.00;98534.41;2057867;28;20202;-68
2022/04/10 01:34:29;;;;;;;44.65;31.73;;;;;;;0.42;100.00;98533.63;2058072;28;20229;-68
2022/04/10 01:35:31;;;;;;;45.28;33.58;;;;;;;0.41;100.00;98533.88;2065897;28;20196;-68
2022/04/10 01:36:35;;;;;;;42.45;32.03;;;;;;;0.37;100.00;98528.31;2065415;28;20220;-68
2022/04/10 01:37:38;;;;;;;45.67;31.20;;;;;;;0.39;100.00;98533.31;2058143;28;20213;-68
2022/04/10 01:38:45;;;;;;;45.38;31.58;;;;;;;0.37;100.00;98541.44;2058400;28;20586;-68
2022/04/10 01:39:46;;;;;;;47.35;32.85;;;;;;;0.37;100.00;98538.81;2058207;28;20198;-68
2022/04/10 01:40:49;;;;;;;48.63;33.20;;;;;;;0.35;100.00;98540.91;2065374;28;20236;-67
2022/04/10 01:41:51;;;;;;;43.30;31.83;;;;;;;0.37;100.00;98538.03;2065756;28;20510;-68
2022/04/10 01:42:52;;;;;;;44.20;32.25;;;;;;;0.35;100.00;98551.41;2065970;28;20631;-69
2022/04/10 01:43:56;;;;;;;45.88;31.35;;;;;;;0.34;100.00;98541.13;2066372;28;20248;-68
2022/04/10 01:45:00;;;;;;;42.83;30.67;;;;;;;0.33;100.00;98544.78;2065989;28;20181;-68
2022/04/10 01:46:02;;;;;;;44.83;31.73;;;;;;;0.33;100.00;98545.56;2057971;28;20288;-68
2022/04/10 01:47:05;;;;;;;47.77;31.93;;;;;;;0.32;100.00;98544.00;2065854;28;20200;-68
2022/04/10 01:48:06;;;;;;;46.47;31.55;;;;;;;0.31;100.00;98542.41;2065692;28;20572;-68
2022/04/10 01:49:08;;;;;;;45.97;31.38;;;;;;;0.29;100.00;98541.84;2057738;28;20202;-68
2022/04/10 01:50:10;;;;;;;46.95;31.55;;;;;;;0.29;100.00;98544.47;2057727;28;20259;-68
2022/04/10 01:51:15;;;;;;;45.13;32.40;;;;;;;0.26;100.00;98545.78;2057231;28;20193;-68
2022/04/10 01:52:16;;;;;;;41.40;31.88;;;;;;;0.26;100.00;98548.38;2058503;28;20297;-68
2022/04/10 01:53:19;;;;;;;42.45;31.73;;;;;;;0.25;100.00;98548.59;2066115;28;20655;-68
2022/04/10 01:54:22;;;;;;;37.95;30.83;;;;;;;0.23;100.00;98550.69;2065703;28;20225;-68
2022/04/10 01:55:24;;;;;;;40.38;30.77;;;;;;;0.22;100.00;98555.13;2057782;28;20222;-68
2022/04/10 01:56:26;;;;;;;42.20;30.90;;;;;;;0.21;100.00;98547.50;2057732;28;20220;-68
2022/04/10 01:57:28;;;;;;;45.35;31.45;;;;;;;0.18;100.00;98553.25;2058073;28;20225;-69
2022/04/10 01:58:29;;;;;;;38.03;29.98;;;;;;;0.18;100.00;98550.63;2057656;28;20282;-68
2022/04/10 01:59:31;;;;;;;39.67;31.02;;;;;;;0.16;100.00;98550.06;2057581;28;20262;-69
2022/04/10 02:00:32;;;;;;;45.63;30.90;;;;;;;0.15;100.00;98548.47;2057765;28;20241;-68
2022/04/10 02:01:34;;;;;;;43.50;31.30;;;;;;;0.14;100.00;98547.69;2057549;28;20201;-68
2022/04/10 02:02:35;;;;;;;38.42;30.13;;;;;;;0.15;100.00;98554.50;2065630;28;20197;-69
2022/04/10 02:03:38;;;;;;;44.72;32.45;;;;;;;0.17;100.00;98547.19;2073765;28;20220;-68
2022/04/10 02:04:44;;;;;;;39.10;29.70;;;;;;;0.16;100.00;98552.69;2065482;28;20235;-68
2022/04/10 02:05:47;;;;;;;42.20;30.02;;;;;;;0.14;100.00;98557.38;2058312;28;20296;-68
2022/04/10 02:06:49;;;;;;;40.05;29.60;;;;;;;0.13;100.00;98559.22;2057650;28;20590;-68
2022/04/10 02:07:51;;;;;;;39.80;30.47;;;;;;;0.13;100.00;98553.16;2065925;28;20213;-69
2022/04/10 02:08:53;;;;;;;39.83;30.73;;;;;;;0.12;100.00;98560.25;2066223;28;20200;-69
2022/04/10 02:10:00;;;;;;;44.53;31.02;;;;;;;0.12;100.00;98560.25;2065498;28;20224;-68
2022/04/10 02:11:09;;;;;;;42.28;30.75;;;;;;;0.11;100.00;98563.13;2058484;28;20205;-69
2022/04/10 02:12:12;;;;;;;38.55;30.15;;;;;;;0.10;100.00;98556.28;2058156;28;20287;-68
2022/04/10 02:13:14;;;;;;;40.75;29.70;;;;;;;0.10;100.00;98572.81;2057615;28;20752;-68
2022/04/10 02:14:16;;;;;;;47.33;30.90;;;;;;;0.10;100.00;98564.94;2057656;28;20292;-68
2022/04/10 02:15:17;;;;;;;41.03;30.70;;;;;;;0.09;100.00;98559.91;2057562;28;20288;-69
2022/04/10 02:16:20;;;;;;;41.20;31.33;;;;;;;0.08;100.00;98564.38;2057495;28;20205;-69
2022/04/10 02:17:23;;;;;;;40.80;31.08;;;;;;;0.09;100.00;98570.41;2065507;28;20259;-69
2022/04/10 02:18:26;;;;;;;42.20;28.90;;;;;;;0.09;100.00;98578.28;2065462;28;20264;-68
2022/04/10 02:19:26;;;;;;;42.92;30.40;;;;;;;0.08;100.00;98574.06;2057568;28;20202;-68
2022/04/10 02:20:30;;;;;;;40.03;29.00;;;;;;;0.08;100.00;98568.81;2056993;28;20236;-68
2022/04/10 02:21:31;;;;;;;42.70;30.00;;;;;;;0.07;100.00;98572.47;2057141;28;20496;-69
2022/04/10 02:22:33;;;;;;;40.10;30.00;;;;;;;0.10;100.00;98564.94;2057843;28;20708;-68
2022/04/10 02:23:36;;;;;;;39.17;29.90;;;;;;;0.10;100.00;98582.50;2057384;28;20300;-68
2022/04/10 02:24:38;;;;;;;41.30;29.50;;;;;;;0.10;100.00;98579.88;2057809;28;20688;-69
2022/04/10 02:25:40;;;;;;;37.38;29.15;;;;;;;0.12;100.00;98580.44;2057036;28;20201;-68
2022/04/10 02:26:44;;;;;;;38.72;30.23;;;;;;;0.11;100.00;98574.41;2057065;28;20722;-68
2022/04/10 02:27:45;;;;;;;39.95;29.60;;;;;;;0.09;100.00;98578.28;2057790;28;20664;-68
2022/04/10 02:28:47;;;;;;;40.90;28.73;;;;;;;0.11;100.00;98573.59;2065596;28;20177;-68
2022/04/10 02:29:48;;;;;;;36.83;28.80;;;;;;;0.11;100.00;98579.63;2064663;28;20752;-68
2022/04/10 02:30:50;;;;;;;36.10;28.40;;;;;;;0.09;100.00;98575.66;2057396;28;20615;-68
2022/04/10 02:31:52;;;;;;;39.80;29.17;;;;;;;0.04;100.00;98576.38;2057408;28;20199;-68
2022/04/10 02:32:55;;;;;;;37.90;29.30;;;;;;;0.06;100.00;98584.00;2057155;28;20253;-68
2022/04/10 02:33:56;;;;;;;39.97;29.38;;;;;;;0.05;100.00;98591.06;2057451;28;20198;-68
2022/04/10 02:34:58;;;;;;;39.72;30.00;;;;;;;0.04;100.00;98583.47;2065669;28;20197;-67
2022/04/10 02:35:59;;;;;;;39.22;29.95;;;;;;;0.03;100.00;98579.25;2065809;28;20193;-69
2022/04/10 02:37:01;;;;;;;38.97;29.52;;;;;;;0.04;100.00;98586.06;2073536;28;20223;-68
2022/04/10 02:38:06;;;;;;;38.40;29.55;;;;;;;-0.02;100.00;98580.75;2065340;28;20208;-68
2022/04/10 02:39:09;;;;;;;36.47;28.80;;;;;;;-0.01;100.00;98587.56;2065594;28;20177;-68
2022/04/10 02:40:14;;;;;;;36.70;29.80;;;;;;;0.00;100.00;98588.41;2073414;28;20200;-68
2022/04/10 02:41:19;;;;;;;38.90;29.23;;;;;;;-0.01;100.00;98590.19;2065327;28;20737;-67
2022/04/10 02:42:20;;;;;;;38.58;29.60;;;;;;;-0.04;100.00;98585.44;2057658;28;20676;-68
2022/04/10 02:43:21;;;;;;;36.03;29.03;;;;;;;-0.05;100.00;98594.34;2065484;28;20612;-69
2022/04/10 02:44:25;;;;;;;36.35;28.95;;;;;;;-0.05;100.00;98594.34;2065266;28;20766;-69
2022/04/10 02:45:29;;;;;;;39.90;29.73;;;;;;;-0.05;100.00;98602.22;2065296;28;20610;-68
2022/04/10 02:46:32;;;;;;;38.80;28.40;;;;;;;-0.01;100.00;98599.88;2065305;28;20629;-69
2022/04/10 02:47:35;;;;;;;35.85;28.77;;;;;;;-0.05;100.00;98599.59;2065483;28;20279;-69
2022/04/10 02:48:38;;;;;;;34.50;28.85;;;;;;;-0.07;100.00;98595.63;2065283;28;20197;-68
2022/04/10 02:49:43;;;;;;;34.53;28.05;;;;;;;-0.06;100.00;98598.00;2057693;28;20206;-68
2022/04/10 02:50:45;;;;;;;36.95;28.73;;;;;;;-0.10;100.00;98599.50;2065268;28;20235;-68
2022/04/10 02:51:49;;;;;;;41.72;29.02;;;;;;;-0.10;100.00;98602.09;2065180;28;20687;-68
2022/04/10 02:52:51;;;;;;;33.90;28.33;;;;;;;-0.09;100.00;98603.72;2065303;28;20201;-68
2022/04/10 02:53:54;;;;;;;43.20;29.80;;;;;;;-0.10;100.00;98604.72;2057362;28;20204;-68
2022/04/10 02:54:55;;;;;;;43.13;30.92;;;;;;;-0.12;100.00;98603.38;2057447;28;20686;-68
2022/04/10 02:55:58;;;;;;;38.07;29.23;;;;;;;-0.17;100.00;98598.88;2057238;28;20206;-68
2022/04/10 02:57:00;;;;;;;36.13;29.15;;;;;;;-0.15;100.00;98609.13;2064729;28;20488;-68
2022/04/10 02:58:02;;;;;;;40.08;29.40;;;;;;;-0.17;100.00;98611.19;2065275;28;20201;-69
2022/04/10 02:59:03;;;;;;;36.45;29.13;;;;;;;-0.18;100.00;98607.75;2057381;28;20205;-70
2022/04/10 03:00:07;;;;;;;37.13;29.23;;;;;;;-0.20;100.00;98609.81;2057217;28;20231;-69
2022/04/10 03:01:10;;;;;;;40.63;30.45;;;;;;;-0.16;100.00;98610.16;2057561;28;20197;-68
2022/04/10 03:02:14;;;;;;;34.95;28.60;;;;;;;-0.17;100.00;98611.97;2057731;28;20211;-69
2022/04/10 03:03:15;;;;;;;43.17;30.05;;;;;;;-0.20;100.00;98609.81;2057198;28;20302;-68
2022/04/10 03:04:18;;;;;;;41.60;29.95;;;;;;;-0.20;100.00;98617.69;2057567;28;20216;-69
2022/04/10 03:05:19;;;;;;;40.78;30.00;;;;;;;-0.22;100.00;98617.13;2057251;28;20260;-68
2022/04/10 03:06:21;;;;;;;35.63;28.23;;;;;;;-0.22;100.00;98622.38;2064870;28;20280;-69
2022/04/10 03:07:22;;;;;;;39.47;29.63;;;;;;;-0.20;100.00;98625.53;2065553;28;20211;-68
2022/04/10 03:08:26;;;;;;;36.40;28.90;;;;;;;-0.20;100.00;98624.75;2057162;28;20197;-68
2022/04/10 03:09:28;;;;;;;38.90;28.52;;;;;;;-0.20;100.00;98630.78;2057264;28;20292;-68
2022/04/10 03:10:29;;;;;;;37.67;28.55;;;;;;;-0.16;100.00;98634.53;2057127;28;20201;-68
2022/04/10 03:11:31;;;;;;;43.33;29.45;;;;;;;-0.15;100.00;98632.72;2057332;28;20795;-67
2022/04/10 03:12:35;;;;;;;43.85;29.63;;;;;;;-0.15;100.00;98638.75;2057365;28;20193;-68
2022/04/10 03:13:37;;;;;;;41.40;28.55;;;;;;;-0.19;100.00;98632.38;2065333;28;20284;-68
2022/04/10 03:14:43;;;;;;;37.92;29.08;;;;;;;-0.20;100.00;98636.03;2065133;28;20252;-68
2022/04/10 03:15:47;;;;;;;40.15;28.33;;;;;;;-0.17;100.00;98629.53;2065657;28;20550;-68
2022/04/10 03:16:51;;;;;;;36.15;29.10;;;;;;;-0.21;100.00;98634.44;2065243;28;20197;-68
2022/04/10 03:17:52;;;;;;;35.75;28.50;;;;;;;-0.21;100.00;98638.88;2057386;28;20297;-69
2022/04/10 03:18:55;;;;;;;36.67;28.65;;;;;;;-0.21;100.00;98646.75;2057291;28;20256;-68
2022/04/10 03:19:56;;;;;;;36.20;28.20;;;;;;;-0.21;100.00;98642.31;2065471;28;20524;-68
2022/04/10 03:20:59;;;;;;;31.55;27.75;;;;;;;-0.22;100.00;98643.34;2064600;28;20596;-69
2022/04/10 03:22:01;;;;;;;32.92;27.30;;;;;;;-0.25;100.00;98649.06;2057335;28;20222;-68
2022/04/10 03:23:08;;;;;;;33.55;27.15;;;;;;;-0.27;100.00;98651.09;2057267;28;20252;-68
2022/04/10 03:24:11;;;;;;;32.40;27.75;;;;;;;-0.26;100.00;98651.91;2058171;28;20571;-69
2022/04/10 03:25:12;;;;;;;36.53;28.50;;;;;;;-0.30;100.00;98647.13;2065425;28;20189;-68
2022/04/10 03:26:13;;;;;;;35.15;28.75;;;;;;;-0.25;100.00;98650.91;2073342;28;20208;-68
2022/04/10 03:27:15;;;;;;;34.67;29.27;;;;;;;-0.30;100.00;98641.09;2073128;28;20224;-68
2022/04/10 03:28:28;;;;;;;38.42;28.95;;;;;;;-0.31;100.00;98644.75;2073231;28;20274;-67
2022/04/10 03:29:30;;;;;;;37.88;29.17;;;;;;;-0.33;100.00;98652.84;2065352;28;20688;-67
2022/04/10 03:30:34;;;;;;;38.50;28.83;;;;;;;-0.33;100.00;98655.47;2057177;28;20194;-68
2022/04/10 03:31:36;;;;;;;36.13;29.38;;;;;;;-0.35;100.00;98660.16;2057496;28;20205;-68
2022/04/10 03:32:38;;;;;;;34.20;29.40;;;;;;;-0.34;100.00;98660.97;2057153;28;20236;-69
2022/04/10 03:33:38;;;;;;;40.45;28.50;;;;;;;-0.35;100.00;98656.72;2064775;28;20197;-68
2022/04/10 03:34:40;;;;;;;34.50;29.43;;;;;;;-0.36;100.00;98661.16;2073283;28;20279;-68
2022/04/10 03:35:41;;;;;;;34.58;28.40;;;;;;;-0.36;100.00;98658.56;2065058;28;20262;-68
2022/04/10 03:36:45;;;;;;;35.28;28.88;;;;;;;-0.38;100.00;98662.44;2056986;28;20232;-68
2022/04/10 03:37:46;;;;;;;35.38;29.67;;;;;;;-0.40;100.00;98657.44;2065183;28;20200;-68
2022/04/10 03:38:48;;;;;;;36.90;28.63;;;;;;;-0.41;100.00;98657.69;2073273;28;20196;-69
2022/04/10 03:39:49;;;;;;;41.25;28.40;;;;;;;-0.35;100.00;98664.59;2073216;28;20837;-68
2022/04/10 03:40:50;;;;;;;36.97;29.23;;;;;;;-0.36;100.00;98669.03;2065663;28;20215;-68
2022/04/10 03:41:53;;;;;;;39.83;30.27;;;;;;;-0.36;100.00;98668.25;2058705;28;20224;-68
2022/04/10 03:42:57;;;;;;;38.85;29.30;;;;;;;-0.37;100.00;98677.13;2067436;28;20201;-68
2022/04/10 03:43:59;;;;;;;36.00;29.88;;;;;;;-0.39;100.00;98680.00;2066575;28;20223;-68
2022/04/10 03:45:03;;;;;;;37.22;29.50;;;;;;;-0.37;100.00;98680.56;2058848;28;20201;-68
2022/04/10 03:46:04;;;;;;;38.95;30.10;;;;;;;-0.35;100.00;98670.66;2059141;28;20205;-67
2022/04/10 03:47:07;;;;;;;37.15;29.58;;;;;;;-0.32;100.00;98674.63;2058649;28;20189;-68
2022/04/10 03:48:09;;;;;;;38.63;29.77;;;;;;;-0.31;100.00;98678.81;2066486;28;20288;-68
2022/04/10 03:49:13;;;;;;;38.30;29.48;;;;;;;-0.25;100.00;98680.53;2066620;28;20189;-68
2022/04/10 03:50:14;;;;;;;37.28;29.02;;;;;;;-0.21;100.00;98681.63;2066692;28;20193;-68
2022/04/10 03:51:16;;;;;;;38.78;28.75;;;;;;;-0.18;100.00;98677.72;2065525;28;20227;-68
2022/04/10 03:52:20;;;;;;;36.35;29.25;;;;;;;-0.17;100.00;98674.09;2066849;28;20220;-68
2022/04/10 03:53:22;;;;;;;38.47;29.70;;;;;;;-0.18;100.00;98680.34;2066596;28;20205;-68
2022/04/10 03:54:23;;;;;;;40.20;30.63;;;;;;;-0.18;100.00;98675.91;2058712;28;20201;-68
2022/04/10 03:55:26;;;;;;;40.97;29.45;;;;;;;-0.15;100.00;98688.56;2066708;28;20201;-68
2022/04/10 03:56:32;;;;;;;40.17;31.27;;;;;;;-0.12;100.00;98689.91;2066593;28;20757;-68
2022/04/10 03:57:35;;;;;;;42.88;32.28;;;;;;;-0.09;100.00;98682.38;2058769;28;20237;-68
2022/04/10 03:58:37;;;;;;;42.55;31.90;;;;;;;-0.06;100.00;98681.09;2066916;28;20212;-68
2022/04/10 03:59:40;;;;;;;45.10;32.42;;;;;;;-0.03;100.00;98684.03;2066209;28;20201;-68
2022/04/10 04:00:41;;;;;;;39.78;31.58;;;;;;;0.03;100.00;98690.19;2058686;28;20684;-67
2022/04/10 04:01:47;;;;;;;42.45;30.83;;;;;;;0.05;100.00;98687.31;2059173;28;20194;-68
2022/04/10 04:02:48;;;;;;;46.35;32.25;;;;;;;0.03;100.00;98689.38;2066608;28;20193;-68
2022/04/10 04:03:57;;;;;;;41.97;30.73;;;;;;;0.04;100.00;98683.09;2066597;28;20369;-68
2022/04/10 04:05:00;;;;;;;39.13;31.05;;;;;;;0.09;100.00;98693.66;2058220;28;20297;-68
2022/04/10 04:06:03;;;;;;;41.35;31.42;;;;;;;0.09;100.00;98693.66;2058207;28;20194;-68
2022/04/10 04:07:05;;;;;;;38.05;30.02;;;;;;;0.15;100.00;98700.59;2066473;28;20193;-68
2022/04/10 04:08:07;;;;;;;38.13;30.27;;;;;;;0.17;100.00;98701.16;2066534;28;20259;-68
2022/04/10 04:09:09;;;;;;;41.28;31.98;;;;;;;0.16;100.00;98691.69;2066496;28;20193;-68
2022/04/10 04:10:11;;;;;;;41.43;31.27;;;;;;;0.17;100.00;98694.06;2058378;28;20205;-68
2022/04/10 04:11:12;;;;;;;41.17;30.45;;;;;;;0.19;100.00;98692.03;2066660;28;20197;-68
2022/04/10 04:12:18;;;;;;;38.72;30.08;;;;;;;0.20;100.00;98698.88;2066462;28;20197;-68
2022/04/10 04:13:19;;;;;;;40.38;30.88;;;;;;;0.19;100.00;98704.34;2059099;28;20201;-68
2022/04/10 04:14:21;;;;;;;40.97;31.40;;;;;;;0.21;100.00;98710.16;2058420;28;20186;-69
2022/04/10 04:15:24;;;;;;;42.15;29.63;;;;;;;0.19;100.00;98697.28;2066673;28;20557;-69
2022/04/10 04:16:28;;;;;;;39.03;31.08;;;;;;;0.19;100.00;98707.78;2066560;28;20684;-70
2022/04/10 04:17:30;;;;;;;38.78;30.33;;;;;;;0.21;100.00;98713.56;2066496;28;20263;-69
2022/04/10 04:18:32;;;;;;;40.78;31.27;;;;;;;0.17;100.00;98701.16;2066404;28;20686;-69
2022/04/10 04:19:33;;;;;;;42.00;30.30;;;;;;;0.14;100.00;98712.13;2066646;28;20201;-69
2022/04/10 04:20:35;;;;;;;40.10;31.53;;;;;;;0.11;100.00;98702.13;2066382;28;20264;-69
2022/04/10 04:21:36;;;;;;;39.13;30.23;;;;;;;0.10;100.00;98706.56;2058047;28;20588;-70
2022/04/10 04:22:38;;;;;;;40.63;30.67;;;;;;;0.12;100.00;98708.94;2066593;28;20292;-69
2022/04/10 04:23:39;;;;;;;37.33;30.15;;;;;;;0.09;100.00;98704.16;2066251;28;20208;-69
2022/04/10 04:24:42;;;;;;;42.95;31.05;;;;;;;0.09;100.00;98712.03;2058557;28;20269;-68
2022/04/10 04:25:43;;;;;;;42.25;31.33;;;;;;;0.06;100.00;98709.88;2058400;28;20253;-69
2022/04/10 04:26:49;;;;;;;44.15;31.15;;;;;;;0.06;100.00;98725.63;2066643;28;20287;-69
2022/04/10 04:27:52;;;;;;;39.38;31.17;;;;;;;0.07;100.00;98724.59;2074378;28;20208;-69
2022/04/10 04:28:54;;;;;;;40.13;31.03;;;;;;;0.04;100.00;98715.38;2066340;28;20292;-69
2022/04/10 04:29:56;;;;;;;42.05;31.10;;;;;;;0.05;100.00;98716.16;2066323;28;20993;-69
2022/04/10 04:31:00;;;;;;;36.40;30.73;;;;;;;0.05;100.00;98718.78;2058315;28;20194;-70
2022/04/10 04:32:02;;;;;;;42.22;31.17;;;;;;;0.01;100.00;98718.47;2066492;28;20216;-68
2022/04/10 04:33:09;;;;;;;45.25;31.95;;;;;;;0.01;100.00;98720.31;2066251;28;20284;-68
2022/04/10 04:34:13;;;;;;;37.85;31.10;;;;;;;0.00;100.00;98719.50;2066328;28;20240;-67
2022/04/10 04:35:15;;;;;;;44.67;32.17;;;;;;;0.03;100.00;98729.53;2058635;28;20292;-68
2022/04/10 04:36:16;;;;;;;36.50;30.13;;;;;;;0.02;100.00;98732.38;2058007;28;20225;-67
2022/04/10 04:37:18;;;;;;;35.20;30.10;;;;;;;0.04;100.00;98735.56;2066281;28;20197;-68
2022/04/10 04:38:20;;;;;;;36.00;30.80;;;;;;;0.03;100.00;98728.72;2058258;28;20197;-68
2022/04/10 04:39:24;;;;;;;41.50;32.20;;;;;;;0.09;100.00;98730.38;2066454;28;20204;-68
2022/04/10 04:40:28;;;;;;;42.42;31.42;;;;;;;0.10;100.00;98743.28;2066239;28;20205;-68
2022/04/10 04:41:30;;;;;;;40.60;31.75;;;;;;;0.10;100.00;98739.88;2058552;28;20727;-68
2022/04/10 04:42:31;;;;;;;38.50;31.17;;;;;;;0.13;100.00;98742.00;2058283;28;20228;-67
2022/04/10 04:43:32;;;;;;;42.37;32.10;;;;;;;0.12;100.00;98743.03;2058187;28;20193;-67
2022/04/10 04:44:33;;;;;;;40.72;31.88;;;;;;;0.17;100.00;98740.50;2066226;28;20263;-67
2022/04/10 04:45:36;;;;;;;38.10;30.45;;;;;;;0.20;100.00;98746.09;2066210;28;20189;-68
2022/04/10 04:46:45;;;;;;;42.55;32.03;;;;;;;0.22;100.00;98745.84;2066233;28;20209;-68
2022/04/10 04:47:47;;;;;;;39.75;31.58;;;;;;;0.22;100.00;98740.59;2066426;28;20213;-68